Flippin, AR

2:04 PM CST on February 08, 2016 (GMT -0600)
Marion County Regional

Weather History for KFLP - January, 2007

Change the Weather History Date:

Wednesday, January 17, 2007

  Actual Average Record
Temperature  
Mean Temperature 22 °F -  
Max Temperature 28 °F 45 °F 64 °F (1999)
Min Temperature 15 °F 26 °F 3 °F (1997)
Degree Days  
Heating Degree Days 44    
Moisture  
Dew Point 15 °F    
Average Humidity 75    
Maximum Humidity 93    
Minimum Humidity 64    
Precipitation  
Precipitation 0.00 in - - ()
Sea Level Pressure  
Sea Level Pressure 30.56 in    
Wind  
Wind Speed 3 mph (East)    
Max Wind Speed 8 mph    
Max Gust Speed -    
Visibility 10 miles    
Events      
Averages and records for this station are not official NWS values.
T = Trace of Precipitation, MM = Missing Value Source: NWS Daily Summary

Daily Weather History Graph

Daily Weather History Graph

Search for Another Location

Airport or City:

Trip Planner

Search our weather history database for the weather conditions in past years. The results will help you decide how hot, cold, wet, or windy it might be!

Date:

Astronomy

Jan. 17, 2007 Rise Set
Actual Time 7:20 AM CST 5:20 PM CST
Civil Twilight 6:52 AM CST 5:48 PM CST
Nautical Twilight 6:20 AM CST 6:20 PM CST
Astronomical Twilight 5:50 AM CST 6:51 PM CST
Moon 6:24 AM CST (1/17) 3:41 PM CST (1/17)
Length of Visible Light 10h 56m
Length of Day
10h 00m
Waning Crescent, 3% of the Moon is Illuminated
Jan 17
Waning Crescent
Jan 18
New
Jan 25
First Quarter
Feb 1
Full
Feb 10
Last Quarter

Hourly Weather History & Observations

Time (CST) Temp. Windchill Dew Point Humidity Pressure Visibility Wind Dir Wind Speed Gust Speed Precip Events Conditions
12:15 AM 17.6 °F 12.3 °F 12.2 °F 79% 30.65 in 10.0 mi NNE 3.5 mph - N/A   Clear
12:35 AM 17.6 °F 12.3 °F 12.2 °F 79% 30.64 in 10.0 mi NNE 3.5 mph - N/A   Clear
12:55 AM 17.6 °F 10.7 °F 12.2 °F 79% 30.64 in 10.0 mi NNE 4.6 mph - N/A   Clear
1:15 AM 17.6 °F - 12.2 °F 79% 30.65 in 10.0 mi Calm Calm - N/A   Clear
1:35 AM 17.6 °F - 14.0 °F 86% 30.66 in 10.0 mi Calm Calm - N/A   Clear
2:15 AM 17.6 °F - 12.2 °F 79% 30.64 in 10.0 mi Calm Calm - N/A   Clear
2:35 AM 17.6 °F 12.3 °F 12.2 °F 79% 30.64 in 10.0 mi NNE 3.5 mph - N/A   Clear
2:55 AM 17.6 °F - 12.2 °F 79% 30.63 in 10.0 mi Calm Calm - N/A   Clear
3:15 AM 17.6 °F 10.7 °F 14.0 °F 86% 30.63 in 10.0 mi NNE 4.6 mph - N/A   Clear
3:35 AM 17.6 °F 12.3 °F 12.2 °F 79% 30.63 in 10.0 mi North 3.5 mph - N/A   Clear
3:55 AM 17.6 °F - 12.2 °F 79% 30.64 in 10.0 mi Calm Calm - N/A   Clear
4:15 AM 15.8 °F 10.2 °F 10.4 °F 79% 30.62 in 10.0 mi NE 3.5 mph - N/A   Clear
4:35 AM 15.8 °F 10.2 °F 12.2 °F 86% 30.61 in 10.0 mi NE 3.5 mph - N/A   Clear
4:55 AM 15.8 °F - 12.2 °F 86% 30.63 in 10.0 mi Calm Calm - N/A   Clear
5:15 AM 15.8 °F - 12.2 °F 86% 30.63 in 10.0 mi Calm Calm - N/A   Clear
5:35 AM 15.8 °F 10.2 °F 12.2 °F 86% 30.62 in 10.0 mi NNE 3.5 mph - N/A   Clear
5:55 AM 17.6 °F 12.3 °F 12.2 °F 79% 30.62 in 10.0 mi NNE 3.5 mph - N/A   Clear
6:15 AM 15.8 °F - 14.0 °F 93% 30.62 in 10.0 mi Calm Calm - N/A   Clear
6:35 AM 17.6 °F - 14.0 °F 86% 30.63 in 10.0 mi Calm Calm - N/A   Clear
6:55 AM 15.8 °F - 12.2 °F 86% 30.63 in 10.0 mi Calm Calm - N/A   Clear
7:15 AM 17.6 °F - 12.2 °F 79% 30.62 in 10.0 mi Calm Calm - N/A   Clear
7:35 AM 15.8 °F - 12.2 °F 86% 30.63 in 10.0 mi Calm Calm - N/A   Clear
7:55 AM 17.6 °F 12.3 °F 14.0 °F 86% 30.61 in 10.0 mi ENE 3.5 mph - N/A   Clear
8:15 AM 17.6 °F - 15.8 °F 93% 30.61 in 10.0 mi Calm Calm - N/A   Clear
8:35 AM 17.6 °F 12.3 °F 14.0 °F 86% 30.62 in 10.0 mi SE 3.5 mph - N/A   Clear
8:55 AM 19.4 °F 10.4 °F 14.0 °F 80% 30.61 in 10.0 mi ESE 6.9 mph - N/A   Clear
9:15 AM 19.4 °F 9.5 °F 14.0 °F 80% 30.61 in 10.0 mi East 8.1 mph - N/A   Clear
9:35 AM 21.2 °F 13.6 °F 15.8 °F 80% 30.61 in 10.0 mi ESE 5.8 mph - N/A   Clear
9:55 AM 21.2 °F 13.6 °F 17.6 °F 86% 30.61 in 10.0 mi East 5.8 mph - N/A   Scattered Clouds
10:15 AM 21.2 °F 13.6 °F 15.8 °F 80% 30.62 in 10.0 mi East 5.8 mph - N/A   Scattered Clouds
10:55 AM 24.8 °F 19.1 °F 15.8 °F 69% 30.61 in 10.0 mi ESE 4.6 mph - N/A   Clear
11:15 AM 24.8 °F 16.1 °F 15.8 °F 69% 30.59 in 10.0 mi ENE 8.1 mph - N/A   Clear
11:35 AM 26.6 °F 20.0 °F 17.6 °F 69% 30.57 in 10.0 mi ESE 5.8 mph - N/A   Clear
11:55 AM 26.6 °F 18.2 °F 15.8 °F 64% 30.56 in 10.0 mi ESE 8.1 mph - N/A   Clear
12:15 PM 28.4 °F 22.2 °F 17.6 °F 64% 30.53 in 10.0 mi SE 5.8 mph - N/A   Partly Cloudy
12:35 PM 26.6 °F 19.1 °F 15.8 °F 64% 30.52 in 10.0 mi ESE 6.9 mph - N/A   Scattered Clouds
12:55 PM 28.4 °F 21.2 °F 17.6 °F 64% 30.51 in 10.0 mi East 6.9 mph - N/A   Scattered Clouds
1:15 PM 28.4 °F 22.2 °F 17.6 °F 64% 30.51 in 10.0 mi SE 5.8 mph - N/A   Mostly Cloudy
1:35 PM 28.4 °F 23.3 °F 19.4 °F 69% 30.50 in 10.0 mi East 4.6 mph - N/A   Overcast
1:55 PM 28.4 °F 23.3 °F 17.6 °F 64% 30.48 in 10.0 mi ESE 4.6 mph - N/A   Mostly Cloudy
2:15 PM 28.4 °F 23.3 °F 17.6 °F 64% 30.48 in 10.0 mi ENE 4.6 mph - N/A   Mostly Cloudy
2:35 PM 28.4 °F 22.2 °F 17.6 °F 64% 30.46 in 10.0 mi East 5.8 mph - N/A   Mostly Cloudy
2:55 PM 28.4 °F 22.2 °F 17.6 °F 64% 30.45 in 10.0 mi East 5.8 mph - N/A   Mostly Cloudy
3:15 PM 28.4 °F 22.2 °F 17.6 °F 64% 30.45 in 10.0 mi East 5.8 mph - N/A   Mostly Cloudy
3:35 PM 28.4 °F 23.3 °F 19.4 °F 69% 30.44 in 10.0 mi East 4.6 mph - N/A   Mostly Cloudy
3:55 PM 28.4 °F 24.6 °F 17.6 °F 64% 30.44 in 10.0 mi East 3.5 mph - N/A   Scattered Clouds
4:15 PM 28.4 °F 21.2 °F 17.6 °F 64% 30.43 in 10.0 mi East 6.9 mph - N/A   Mostly Cloudy
4:35 PM 28.4 °F 23.3 °F 17.6 °F 64% 30.42 in 10.0 mi ESE 4.6 mph - N/A   Mostly Cloudy
4:55 PM 28.4 °F 20.4 °F 17.6 °F 64% 30.42 in 10.0 mi ESE 8.1 mph - N/A   Mostly Cloudy
5:15 PM 28.4 °F 21.2 °F 17.6 °F 64% 30.42 in 10.0 mi East 6.9 mph - N/A   Overcast
5:35 PM 28.4 °F 22.2 °F 19.4 °F 69% 30.41 in 10.0 mi ESE 5.8 mph - N/A   Overcast
5:55 PM 28.4 °F 22.2 °F 19.4 °F 69% 30.42 in 10.0 mi ESE 5.8 mph - N/A   Overcast
6:15 PM 28.4 °F 21.2 °F 19.4 °F 69% 30.42 in 10.0 mi ESE 6.9 mph - N/A   Overcast
6:35 PM 28.4 °F 23.3 °F 19.4 °F 69% 30.41 in 10.0 mi ESE 4.6 mph - N/A   Overcast
6:55 PM 28.4 °F 21.2 °F 19.4 °F 69% 30.42 in 10.0 mi ESE 6.9 mph - N/A   Overcast
7:15 PM 28.4 °F 21.2 °F 19.4 °F 69% 30.41 in 10.0 mi ESE 6.9 mph - N/A   Overcast
7:35 PM 28.4 °F 21.2 °F 19.4 °F 69% 30.40 in 10.0 mi ESE 6.9 mph - N/A   Overcast
7:55 PM 28.4 °F 22.2 °F 19.4 °F 69% 30.40 in 10.0 mi SE 5.8 mph - N/A   Overcast
8:15 PM 28.4 °F 21.2 °F 19.4 °F 69% 30.40 in 10.0 mi ESE 6.9 mph - N/A   Overcast
8:35 PM 28.4 °F 22.2 °F 21.2 °F 74% 30.39 in 10.0 mi ESE 5.8 mph - N/A   Overcast
8:55 PM 28.4 °F 24.6 °F 21.2 °F 74% 30.38 in 10.0 mi ESE 3.5 mph - N/A   Overcast
9:15 PM 28.4 °F 23.3 °F 21.2 °F 74% 30.38 in 10.0 mi ESE 4.6 mph - N/A   Overcast
9:35 PM 28.4 °F 22.2 °F 21.2 °F 74% 30.37 in 10.0 mi ESE 5.8 mph - N/A   Overcast
9:55 PM 28.4 °F 23.3 °F 21.2 °F 74% 30.38 in 10.0 mi ESE 4.6 mph - N/A   Overcast
10:15 PM 28.4 °F 23.3 °F 19.4 °F 69% 30.37 in 10.0 mi SE 4.6 mph - N/A   Overcast
10:35 PM 28.4 °F 24.6 °F 21.2 °F 74% 30.36 in 10.0 mi ESE 3.5 mph - N/A   Overcast
10:55 PM 28.4 °F 24.6 °F 21.2 °F 74% 30.37 in 10.0 mi SSE 3.5 mph - N/A   Overcast
11:15 PM 28.4 °F 24.6 °F 21.2 °F 74% 30.36 in 10.0 mi SSE 3.5 mph - N/A   Overcast
11:35 PM 28.4 °F 24.6 °F 21.2 °F 74% 30.35 in 10.0 mi SSE 3.5 mph - N/A   Overcast
11:55 PM 28.4 °F 23.3 °F 21.2 °F 74% 30.34 in 10.0 mi SE 4.6 mph - N/A   Overcast